Time;durP1;ratioP1;P1;durP2;ratioP2;P2;SDS_P1;SDS_P2;PMS_P1;PMS_P2;Temp;Humidity;BMP_temperature;BMP_pressure;BME280_temperature;BME280_humidity;BME280_pressure;Samples;Min_cycle;Max_cycle;Signal;HPM_P1;HPM_P2
2024/02/26 00:02:16;;;;;;;1.53;1.40;;;2.90;99.90;;;;;;5055045;28;20170;-86
2024/02/26 00:04:42;;;;;;;2.20;1.20;;;2.90;99.90;;;;;;5026801;28;20178;-86
2024/02/26 00:07:07;;;;;;;2.30;1.37;;;2.90;99.90;;;;;;5026191;28;20505;-87
2024/02/26 00:09:36;;;;;;;3.47;1.50;;;2.80;99.90;;;;;;5037971;28;20581;-86
2024/02/26 00:12:05;;;;;;;3.33;1.40;;;2.90;99.90;;;;;;5056244;28;20205;-87
2024/02/26 00:14:31;;;;;;;4.03;1.37;;;2.90;99.90;;;;;;5038424;28;20679;-86
2024/02/26 00:16:57;;;;;;;2.30;1.40;;;2.90;99.90;;;;;;5032001;28;20182;-86
2024/02/26 00:19:22;;;;;;;1.77;1.27;;;2.90;99.90;;;;;;5018575;28;20206;-86
2024/02/26 00:21:48;;;;;;;6.90;2.73;;;2.90;99.90;;;;;;5032204;28;20198;-87
2024/02/26 00:24:14;;;;;;;2.97;1.70;;;2.90;99.90;;;;;;5055832;28;20178;-86
2024/02/26 00:26:40;;;;;;;1.77;1.50;;;2.80;99.90;;;;;;5055845;28;20284;-86
2024/02/26 00:29:05;;;;;;;3.57;1.67;;;2.80;99.90;;;;;;5047692;28;20173;-86
2024/02/26 00:31:31;;;;;;;2.93;1.37;;;2.90;99.90;;;;;;5037744;28;20181;-86
2024/02/26 00:33:57;;;;;;;2.67;1.67;;;3.00;99.90;;;;;;5038100;28;20500;-86
2024/02/26 00:36:23;;;;;;;1.50;1.40;;;2.90;99.90;;;;;;5038006;28;20182;-86
2024/02/26 00:38:50;;;;;;;3.43;1.70;;;2.90;99.90;;;;;;5055376;28;20173;-86
2024/02/26 00:41:18;;;;;;;3.60;1.87;;;2.80;99.90;;;;;;5037785;28;20189;-86
2024/02/26 00:43:43;;;;;;;2.50;1.90;;;2.80;99.90;;;;;;5055728;28;20178;-86
2024/02/26 00:46:09;;;;;;;3.17;1.93;;;2.70;99.90;;;;;;5029321;28;20202;-86
2024/02/26 00:48:35;;;;;;;3.33;1.90;;;2.60;99.90;;;;;;5055065;28;20182;-86
2024/02/26 00:51:01;;;;;;;3.87;2.00;;;2.60;99.90;;;;;;5037709;28;20214;-86
2024/02/26 00:53:28;;;;;;;3.17;1.93;;;2.70;99.90;;;;;;5027986;28;20632;-87
2024/02/26 00:55:54;;;;;;;5.33;2.73;;;2.70;99.90;;;;;;5037667;28;20639;-86
2024/02/26 00:58:20;;;;;;;7.27;2.50;;;2.70;99.90;;;;;;5055051;28;20178;-86
2024/02/26 01:00:46;;;;;;;3.27;1.87;;;2.80;99.90;;;;;;5054931;28;20256;-85
2024/02/26 01:03:11;;;;;;;6.93;2.03;;;2.80;99.90;;;;;;5054763;28;20205;-86
2024/02/26 01:05:37;;;;;;;6.70;2.10;;;2.80;99.90;;;;;;5029506;28;20220;-86
2024/02/26 01:08:04;;;;;;;2.80;1.87;;;2.80;99.90;;;;;;5036832;28;20222;-86
2024/02/26 01:10:30;;;;;;;3.67;2.07;;;2.80;99.90;;;;;;5021046;28;20212;-86
2024/02/26 01:12:56;;;;;;;3.93;2.10;;;2.80;99.90;;;;;;5054264;28;20178;-87
2024/02/26 01:15:23;;;;;;;2.63;1.77;;;2.80;99.90;;;;;;5054971;28;20174;-87
2024/02/26 01:17:52;;;;;;;3.33;2.20;;;2.80;99.90;;;;;;5041664;28;20209;-87
2024/02/26 01:20:18;;;;;;;2.30;2.00;;;2.70;99.90;;;;;;5035034;28;20236;-86
2024/02/26 01:22:44;;;;;;;3.73;1.90;;;2.70;99.90;;;;;;5046354;28;20188;-86
2024/02/26 01:25:11;;;;;;;2.73;1.73;;;2.70;99.90;;;;;;5020537;28;20210;-86
2024/02/26 01:27:37;;;;;;;2.73;1.73;;;2.70;99.90;;;;;;5036988;28;20185;-86
2024/02/26 01:30:06;;;;;;;2.83;2.03;;;2.70;99.90;;;;;;5037051;28;20220;-85
2024/02/26 01:32:33;;;;;;;2.97;2.00;;;2.80;99.90;;;;;;5045676;28;20182;-85
2024/02/26 01:34:58;;;;;;;3.60;2.00;;;2.60;99.90;;;;;;5047491;28;20190;-86
2024/02/26 01:37:25;;;;;;;3.70;2.50;;;2.60;99.90;;;;;;5024999;28;20190;-85
2024/02/26 01:39:51;;;;;;;5.50;2.97;;;2.60;99.90;;;;;;5016880;28;20352;-86
2024/02/26 01:42:17;;;;;;;2.90;1.97;;;2.60;99.90;;;;;;5034589;28;20178;-86
2024/02/26 01:44:43;;;;;;;3.40;2.13;;;2.60;99.90;;;;;;5023836;28;20189;-87
2024/02/26 01:47:13;;;;;;;4.33;2.30;;;2.60;99.90;;;;;;5043707;28;20277;-86
2024/02/26 01:49:40;;;;;;;2.60;1.80;;;2.60;99.90;;;;;;5036402;28;20189;-85
2024/02/26 01:52:08;;;;;;;3.13;2.03;;;2.60;99.90;;;;;;5036328;28;20193;-87
2024/02/26 01:54:40;;;;;;;3.20;2.40;;;2.50;99.90;;;;;;5020673;28;20277;-85
2024/02/26 01:57:07;;;;;;;3.77;2.40;;;2.50;99.90;;;;;;5036566;28;20185;-86
2024/02/26 01:59:39;;;;;;;3.10;2.30;;;2.40;99.90;;;;;;5036716;28;20221;-87
2024/02/26 02:02:07;;;;;;;3.33;2.27;;;2.40;99.90;;;;;;5036664;28;20178;-86
2024/02/26 02:04:34;;;;;;;3.93;2.70;;;2.30;99.90;;;;;;5016841;28;20190;-87
2024/02/26 02:07:01;;;;;;;3.97;2.37;;;2.30;99.90;;;;;;5041596;28;20559;-87
2024/02/26 02:09:28;;;;;;;3.70;2.40;;;2.30;99.90;;;;;;5035632;28;20229;-87
2024/02/26 02:11:54;;;;;;;3.33;2.30;;;2.30;99.90;;;;;;5053657;28;20190;-86
2024/02/26 02:14:20;;;;;;;3.13;2.43;;;2.30;99.90;;;;;;5036143;28;20240;-86
2024/02/26 02:16:47;;;;;;;3.57;2.43;;;2.30;99.90;;;;;;5031827;28;20190;-86
2024/02/26 02:19:13;;;;;;;3.13;2.30;;;2.30;99.90;;;;;;5033157;28;20651;-86
2024/02/26 02:21:39;;;;;;;3.17;2.30;;;2.30;99.90;;;;;;5053878;28;20189;-86
2024/02/26 02:24:05;;;;;;;4.30;2.70;;;2.30;99.90;;;;;;5036274;28;20203;-86
2024/02/26 02:26:31;;;;;;;3.33;2.33;;;2.40;99.90;;;;;;5053784;28;20186;-86
2024/02/26 02:28:57;;;;;;;4.63;2.27;;;2.30;99.90;;;;;;5053825;28;20186;-86
2024/02/26 02:31:23;;;;;;;2.93;2.23;;;2.20;99.90;;;;;;5052657;28;20182;-86
2024/02/26 02:33:50;;;;;;;2.80;2.10;;;2.20;99.90;;;;;;5053638;28;20193;-87
2024/02/26 02:36:15;;;;;;;2.80;2.10;;;2.10;99.90;;;;;;5027812;28;20528;-87
2024/02/26 02:38:51;;;;;;;3.47;2.27;;;2.10;99.90;;;;;;5035604;28;20180;-87
2024/02/26 02:41:17;;;;;;;4.07;2.27;;;2.10;99.90;;;;;;5035912;28;20523;-88
2024/02/26 02:43:43;;;;;;;3.23;2.30;;;2.20;99.90;;;;;;5028000;28;20231;-86
2024/02/26 02:46:11;;;;;;;4.00;2.30;;;2.10;99.90;;;;;;5035581;28;20193;-86
2024/02/26 02:48:37;;;;;;;2.30;1.80;;;2.10;99.90;;;;;;5037527;28;20216;-87
2024/02/26 02:51:04;;;;;;;4.37;2.20;;;2.10;99.90;;;;;;5036070;28;20190;-87
2024/02/26 02:53:30;;;;;;;2.67;2.00;;;2.10;99.90;;;;;;5053244;28;20216;-86
2024/02/26 02:55:56;;;;;;;2.70;2.00;;;2.00;99.90;;;;;;5029453;28;20183;-86
2024/02/26 02:58:21;;;;;;;3.37;2.27;;;1.90;99.90;;;;;;5051968;28;20189;-86
2024/02/26 03:00:47;;;;;;;3.27;2.10;;;1.90;99.90;;;;;;5053163;28;20787;-86
2024/02/26 03:03:13;;;;;;;3.00;2.20;;;1.90;99.90;;;;;;5027583;28;20201;-86
2024/02/26 03:05:39;;;;;;;2.23;1.80;;;1.90;99.90;;;;;;5035841;28;20267;-87
2024/02/26 03:08:05;;;;;;;3.87;2.07;;;1.90;99.90;;;;;;5027519;28;20238;-86
2024/02/26 03:10:31;;;;;;;4.73;2.30;;;1.90;99.90;;;;;;5035704;28;20243;-86
2024/02/26 03:12:57;;;;;;;3.20;2.10;;;1.80;99.90;;;;;;5029236;28;20183;-87
2024/02/26 03:15:22;;;;;;;2.97;1.97;;;1.80;99.90;;;;;;5025866;28;20189;-86
2024/02/26 03:17:48;;;;;;;2.90;2.40;;;1.80;99.90;;;;;;5027698;28;20644;-87
2024/02/26 03:20:14;;;;;;;4.00;2.00;;;1.80;99.90;;;;;;5053326;28;20216;-87
2024/02/26 03:22:40;;;;;;;4.27;2.33;;;1.90;99.90;;;;;;5035437;28;20193;-87
2024/02/26 03:25:07;;;;;;;5.77;2.57;;;1.90;99.90;;;;;;5056602;28;20185;-86
2024/02/26 03:27:32;;;;;;;4.03;2.40;;;1.90;99.90;;;;;;5038852;28;20186;-87
2024/02/26 03:29:59;;;;;;;2.53;2.10;;;1.90;99.90;;;;;;5039178;28;20682;-86
2024/02/26 03:32:25;;;;;;;2.90;2.30;;;1.90;99.90;;;;;;5471205;22;20238;-86
2024/02/26 03:34:54;;;;;;;5.10;3.10;;;1.90;99.90;;;;;;5028671;28;20635;-85
2024/02/26 03:37:20;;;;;;;6.77;2.70;;;1.90;99.90;;;;;;5039122;28;20185;-86
2024/02/26 03:39:45;;;;;;;4.57;3.27;;;1.90;99.90;;;;;;5056390;28;20674;-86
2024/02/26 03:42:11;;;;;;;4.50;2.57;;;1.90;99.90;;;;;;5039179;28;20284;-84
2024/02/26 03:44:37;;;;;;;3.10;2.53;;;1.90;99.90;;;;;;5039092;28;20185;-85
2024/02/26 03:47:03;;;;;;;4.70;2.73;;;1.80;99.90;;;;;;5032612;28;20182;-85
2024/02/26 03:49:29;;;;;;;3.70;2.60;;;1.80;99.90;;;;;;5047226;28;20186;-86
2024/02/26 03:51:54;;;;;;;4.03;2.77;;;1.90;99.90;;;;;;5039269;28;20200;-86
2024/02/26 03:54:20;;;;;;;5.00;2.53;;;1.90;99.90;;;;;;5030459;28;20684;-86
2024/02/26 03:56:46;;;;;;;3.07;2.73;;;1.90;99.90;;;;;;5057051;28;20260;-86
2024/02/26 03:59:12;;;;;;;4.33;2.83;;;1.90;99.90;;;;;;5038849;28;20177;-86
2024/02/26 04:01:37;;;;;;;4.77;2.93;;;1.90;99.90;;;;;;5039070;28;20181;-85
2024/02/26 04:04:04;;;;;;;3.10;2.67;;;1.90;99.90;;;;;;5038918;28;20186;-86
2024/02/26 04:06:30;;;;;;;7.87;2.80;;;1.90;99.90;;;;;;5038910;28;20186;-86
2024/02/26 04:08:56;;;;;;;4.73;2.50;;;1.90;99.90;;;;;;5031990;28;20193;-86
2024/02/26 04:11:22;;;;;;;4.80;2.80;;;1.90;99.90;;;;;;5028935;28;20209;-86
2024/02/26 04:13:50;;;;;;;4.10;2.57;;;1.90;99.90;;;;;;5038849;28;20704;-85
2024/02/26 04:16:16;;;;;;;4.93;3.07;;;1.90;99.90;;;;;;5037960;28;20193;-86
2024/02/26 04:18:42;;;;;;;4.97;2.93;;;1.80;99.90;;;;;;5023349;28;20605;-86
2024/02/26 04:21:08;;;;;;;4.33;3.07;;;1.80;99.90;;;;;;5038203;28;20557;-86
2024/02/26 04:23:34;;;;;;;4.07;3.10;;;1.80;99.90;;;;;;5035120;28;20190;-87
2024/02/26 04:26:00;;;;;;;4.30;3.13;;;1.80;99.90;;;;;;5018661;28;20198;-86
2024/02/26 04:28:28;;;;;;;3.87;3.13;;;1.80;99.90;;;;;;5037309;28;20532;-86
2024/02/26 04:30:55;;;;;;;4.63;3.67;;;1.70;99.90;;;;;;5038450;28;20236;-87
2024/02/26 04:33:21;;;;;;;4.80;3.53;;;1.80;99.90;;;;;;5036407;28;20244;-86
2024/02/26 04:35:46;;;;;;;6.47;3.20;;;1.80;99.90;;;;;;5031502;28;20273;-86
2024/02/26 04:38:12;;;;;;;5.40;3.53;;;1.80;99.90;;;;;;5038051;28;20189;-86
2024/02/26 04:40:38;;;;;;;5.13;3.63;;;1.90;99.90;;;;;;5037926;28;20213;-86
2024/02/26 04:43:04;;;;;;;4.73;3.57;;;1.80;99.90;;;;;;5037749;28;20209;-86
2024/02/26 04:45:29;;;;;;;4.20;3.30;;;1.90;99.90;;;;;;5037649;28;20229;-86
2024/02/26 04:47:55;;;;;;;3.67;3.20;;;1.80;99.90;;;;;;5030642;28;20188;-86
2024/02/26 04:50:21;;;;;;;5.17;3.73;;;1.80;99.90;;;;;;5036161;28;20624;-86
2024/02/26 04:52:47;;;;;;;4.33;3.37;;;1.80;99.90;;;;;;5031157;28;20181;-86
2024/02/26 04:55:12;;;;;;;4.23;3.53;;;1.80;99.90;;;;;;5037369;28;20193;-85
2024/02/26 04:57:38;;;;;;;4.67;3.87;;;1.80;99.90;;;;;;5037293;28;20208;-86
2024/02/26 05:00:05;;;;;;;4.63;3.80;;;1.70;99.90;;;;;;5037697;28;20298;-86
2024/02/26 05:02:33;;;;;;;5.03;3.77;;;1.70;99.90;;;;;;5037676;28;20675;-86
2024/02/26 05:04:59;;;;;;;5.93;3.70;;;1.80;99.90;;;;;;5030763;28;20182;-86
2024/02/26 05:07:25;;;;;;;5.37;4.10;;;1.70;99.90;;;;;;5036301;28;20197;-86
2024/02/26 05:09:51;;;;;;;5.00;3.93;;;1.70;99.90;;;;;;5037049;28;20265;-86
2024/02/26 05:12:16;;;;;;;5.70;3.90;;;1.80;99.90;;;;;;5037045;28;20284;-86
2024/02/26 05:14:42;;;;;;;6.97;4.00;;;1.80;99.90;;;;;;5037380;28;20534;-85
2024/02/26 05:17:08;;;;;;;5.43;3.90;;;1.80;99.90;;;;;;5029665;28;20197;-86
2024/02/26 05:19:34;;;;;;;5.10;3.70;;;1.80;99.90;;;;;;5047201;28;20205;-86
2024/02/26 05:22:00;;;;;;;4.77;3.57;;;1.90;99.90;;;;;;5037495;28;20197;-86
2024/02/26 05:24:25;;;;;;;4.83;4.00;;;1.80;99.90;;;;;;5036692;28;20628;-86
2024/02/26 05:26:51;;;;;;;4.43;3.43;;;1.90;99.90;;;;;;5037408;28;20575;-86
2024/02/26 05:29:17;;;;;;;5.00;3.50;;;1.90;99.90;;;;;;5027698;28;20188;-85
2024/02/26 05:31:43;;;;;;;5.83;3.90;;;1.90;99.90;;;;;;5029411;28;20317;-86
2024/02/26 05:34:09;;;;;;;4.00;3.40;;;1.90;99.90;;;;;;5038241;28;20186;-86
2024/02/26 05:36:38;;;;;;;5.33;3.90;;;1.90;99.90;;;;;;5053280;28;20196;-86
2024/02/26 05:39:04;;;;;;;5.10;3.67;;;1.90;99.90;;;;;;5028714;28;20217;-86
2024/02/26 05:41:30;;;;;;;6.93;3.50;;;1.90;99.90;;;;;;5036523;28;20655;-87
2024/02/26 05:43:56;;;;;;;7.83;4.00;;;2.00;99.90;;;;;;5036770;28;20181;-86
2024/02/26 05:46:22;;;;;;;6.30;3.43;;;2.00;99.90;;;;;;5035127;28;20178;-85
2024/02/26 05:48:50;;;;;;;6.63;3.90;;;2.00;99.90;;;;;;5030399;28;20207;-86
2024/02/26 05:51:16;;;;;;;3.73;3.33;;;2.00;99.90;;;;;;5035565;28;20182;-85
2024/02/26 05:53:42;;;;;;;4.60;3.33;;;2.00;99.90;;;;;;5021119;28;20319;-86
2024/02/26 05:56:08;;;;;;;5.80;3.90;;;2.00;99.90;;;;;;5036495;28;20178;-86
2024/02/26 05:58:34;;;;;;;9.30;3.73;;;2.00;99.90;;;;;;5036423;28;20185;-86
2024/02/26 06:01:00;;;;;;;5.60;3.73;;;2.00;99.90;;;;;;5036451;28;20213;-85
2024/02/26 06:03:26;;;;;;;4.27;3.40;;;2.00;99.90;;;;;;5035619;28;20188;-86
2024/02/26 06:05:52;;;;;;;7.17;3.77;;;2.00;99.90;;;;;;5034647;28;20185;-86
2024/02/26 06:08:18;;;;;;;5.77;3.97;;;2.10;99.90;;;;;;5034915;28;20604;-85
2024/02/26 06:10:43;;;;;;;4.63;3.77;;;2.00;99.90;;;;;;5029900;28;20201;-85
2024/02/26 06:13:09;;;;;;;5.70;3.50;;;2.10;99.90;;;;;;5035787;28;20243;-85
2024/02/26 06:15:35;;;;;;;4.53;3.40;;;2.10;99.90;;;;;;5036157;28;20193;-85
2024/02/26 06:18:01;;;;;;;5.17;3.17;;;2.00;99.90;;;;;;5028012;28;20612;-85
2024/02/26 06:20:26;;;;;;;4.57;3.60;;;2.10;99.90;;;;;;5035354;28;20209;-85
2024/02/26 06:22:52;;;;;;;4.70;3.57;;;2.10;99.90;;;;;;5034228;28;20269;-85
2024/02/26 06:25:18;;;;;;;5.00;3.83;;;2.10;99.90;;;;;;5033960;28;20189;-86
2024/02/26 06:27:43;;;;;;;7.37;3.40;;;2.10;99.90;;;;;;5034216;28;20184;-85
2024/02/26 06:30:11;;;;;;;4.50;3.27;;;2.10;99.90;;;;;;5034269;28;20185;-86
2024/02/26 06:32:40;;;;;;;8.03;3.50;;;2.10;99.90;;;;;;5034135;28;20225;-86
2024/02/26 06:35:07;;;;;;;8.33;3.30;;;2.00;99.90;;;;;;5034605;28;20214;-85
2024/02/26 06:37:33;;;;;;;3.97;3.20;;;2.10;99.90;;;;;;5035541;28;20509;-85
2024/02/26 06:40:00;;;;;;;5.50;3.57;;;2.10;99.90;;;;;;5035962;28;20533;-86
2024/02/26 06:42:26;;;;;;;5.30;3.80;;;2.10;99.90;;;;;;5036236;28;20204;-85
2024/02/26 06:44:51;;;;;;;5.47;3.20;;;2.20;99.90;;;;;;5036505;28;20181;-85
2024/02/26 06:47:17;;;;;;;4.10;3.30;;;2.10;99.90;;;;;;5027141;28;20632;-86
2024/02/26 06:49:43;;;;;;;7.53;3.40;;;2.20;99.90;;;;;;5061614;28;20223;-85
2024/02/26 06:52:09;;;;;;;5.87;3.50;;;2.20;99.90;;;;;;5035339;28;20185;-85
2024/02/26 06:54:35;;;;;;;3.83;3.00;;;2.20;99.90;;;;;;5033381;28;20174;-86
2024/02/26 06:57:01;;;;;;;4.27;3.10;;;2.30;99.90;;;;;;5035765;28;20181;-86
2024/02/26 06:59:27;;;;;;;5.23;3.23;;;2.30;99.90;;;;;;5027047;28;20640;-86
2024/02/26 07:01:54;;;;;;;4.20;2.87;;;2.30;99.90;;;;;;5034336;28;20185;-86
2024/02/26 07:04:20;;;;;;;5.13;3.30;;;2.30;99.90;;;;;;5034974;28;20170;-86
2024/02/26 07:06:47;;;;;;;5.03;3.10;;;2.30;99.90;;;;;;5039489;28;20189;-84
2024/02/26 07:09:13;;;;;;;5.07;3.07;;;2.30;99.90;;;;;;5039254;28;20210;-86
2024/02/26 07:11:41;;;;;;;5.73;3.20;;;2.40;99.90;;;;;;5039816;28;20277;-86
2024/02/26 07:14:08;;;;;;;5.20;3.07;;;2.40;99.90;;;;;;5039770;28;20231;-85
2024/02/26 07:16:34;;;;;;;4.33;3.27;;;2.40;99.90;;;;;;5039686;28;20269;-86
2024/02/26 07:19:00;;;;;;;4.97;3.17;;;2.50;99.90;;;;;;5038654;28;20589;-86
2024/02/26 07:21:25;;;;;;;3.93;2.87;;;2.50;99.90;;;;;;5039076;28;20221;-85
2024/02/26 07:23:52;;;;;;;3.57;2.90;;;2.50;99.90;;;;;;5039692;28;20178;-86
2024/02/26 07:26:19;;;;;;;5.23;3.10;;;2.60;99.90;;;;;;5039670;28;20192;-86
2024/02/26 07:28:45;;;;;;;5.23;3.27;;;2.60;99.90;;;;;;5039282;28;20684;-86
2024/02/26 07:31:10;;;;;;;5.43;2.97;;;2.70;99.90;;;;;;5030609;28;20282;-86
2024/02/26 07:33:36;;;;;;;4.50;3.00;;;2.70;99.90;;;;;;5031182;28;20374;-86
2024/02/26 07:36:02;;;;;;;3.57;2.67;;;2.70;99.90;;;;;;5031397;28;20205;-86
2024/02/26 07:38:28;;;;;;;3.53;2.70;;;2.70;99.90;;;;;;5035730;28;21548;-86
2024/02/26 07:40:54;;;;;;;4.13;2.80;;;2.80;99.90;;;;;;5036014;28;20210;-86
2024/02/26 07:43:19;;;;;;;4.50;2.80;;;2.90;99.90;;;;;;5035909;28;20190;-86
2024/02/26 07:45:45;;;;;;;3.13;2.50;;;2.90;99.90;;;;;;5035896;28;20187;-86
2024/02/26 07:48:12;;;;;;;5.97;3.10;;;2.90;99.90;;;;;;5032699;28;20190;-85
2024/02/26 07:50:37;;;;;;;4.07;2.70;;;2.90;99.90;;;;;;5035341;28;20289;-86
2024/02/26 07:53:03;;;;;;;4.27;3.07;;;2.90;99.90;;;;;;5035702;28;20210;-86
2024/02/26 07:55:29;;;;;;;3.80;2.90;;;3.00;99.90;;;;;;5035556;28;20637;-86
2024/02/26 07:57:55;;;;;;;5.90;3.37;;;3.00;99.90;;;;;;5035462;28;20194;-86
2024/02/26 08:00:21;;;;;;;5.13;2.67;;;3.10;99.90;;;;;;5068877;28;20221;-86
2024/02/26 08:02:47;;;;;;;4.63;2.70;;;3.10;99.90;;;;;;5035206;28;20186;-86
2024/02/26 08:05:12;;;;;;;3.80;2.90;;;3.10;99.90;;;;;;5035536;28;20522;-87
2024/02/26 08:07:38;;;;;;;3.97;2.40;;;3.20;99.90;;;;;;5034926;28;20179;-86
2024/02/26 08:10:04;;;;;;;4.63;2.70;;;3.20;99.90;;;;;;5067910;28;20248;-86
2024/02/26 08:12:30;;;;;;;4.00;2.50;;;3.30;99.90;;;;;;5035342;28;20252;-86
2024/02/26 08:14:56;;;;;;;4.10;3.00;;;3.40;99.90;;;;;;5036440;28;20269;-86
2024/02/26 08:17:22;;;;;;;3.97;2.47;;;3.30;99.90;;;;;;5032121;28;20183;-86
2024/02/26 08:19:47;;;;;;;3.73;2.53;;;3.40;99.90;;;;;;5035069;28;20268;-85
2024/02/26 08:22:16;;;;;;;3.80;2.40;;;3.40;99.90;;;;;;5034355;28;20240;-86
2024/02/26 08:24:44;;;;;;;4.87;2.30;;;3.50;99.90;;;;;;5052995;28;20216;-87
2024/02/26 08:27:10;;;;;;;3.43;2.50;;;3.50;99.90;;;;;;5034927;28;20190;-87
2024/02/26 08:29:36;;;;;;;3.83;2.40;;;3.50;99.90;;;;;;5036004;28;20211;-88
2024/02/26 08:32:02;;;;;;;3.40;2.53;;;3.50;99.90;;;;;;5034735;28;20672;-87
2024/02/26 08:34:28;;;;;;;5.00;3.30;;;3.50;99.90;;;;;;5035044;28;20244;-86
2024/02/26 08:36:53;;;;;;;4.17;2.30;;;3.60;99.90;;;;;;5034847;28;20186;-89
2024/02/26 08:39:20;;;;;;;2.70;2.20;;;3.60;99.90;;;;;;5033837;28;20198;-87
2024/02/26 08:41:46;;;;;;;3.47;2.43;;;3.60;99.90;;;;;;5030675;28;20186;-86
2024/02/26 08:44:11;;;;;;;4.63;2.70;;;3.70;99.90;;;;;;5023371;28;20178;-86
2024/02/26 08:46:37;;;;;;;3.70;2.67;;;3.70;99.90;;;;;;5034575;28;20221;-86
2024/02/26 08:49:03;;;;;;;10.47;2.83;;;3.80;99.90;;;;;;5031896;28;20604;-87
2024/02/26 08:51:29;;;;;;;3.57;2.50;;;3.80;99.90;;;;;;5034328;28;20202;-87
2024/02/26 08:53:55;;;;;;;5.80;3.87;;;3.90;99.90;;;;;;5035773;28;20190;-88
2024/02/26 08:56:21;;;;;;;3.80;2.80;;;3.90;99.90;;;;;;5034406;28;20217;-87
2024/02/26 08:58:48;;;;;;;3.00;2.33;;;3.90;99.90;;;;;;5035479;28;20182;-87
2024/02/26 09:01:15;;;;;;;4.30;2.50;;;4.00;99.90;;;;;;5034267;28;20284;-87
2024/02/26 09:03:40;;;;;;;6.43;2.70;;;4.00;99.90;;;;;;5035565;28;20256;-88
2024/02/26 09:06:09;;;;;;;4.43;2.67;;;4.10;99.90;;;;;;5034140;28;20635;-88
2024/02/26 09:08:36;;;;;;;4.47;2.90;;;4.20;99.90;;;;;;5034465;28;20198;-88
2024/02/26 09:11:03;;;;;;;5.23;2.87;;;4.20;99.90;;;;;;5018974;28;20540;-89
2024/02/26 09:13:29;;;;;;;4.13;2.70;;;4.20;99.90;;;;;;5033289;28;20195;-87
2024/02/26 09:15:55;;;;;;;3.87;2.70;;;4.30;99.90;;;;;;5034173;28;20712;-89
2024/02/26 09:18:20;;;;;;;6.67;3.33;;;4.40;99.90;;;;;;5028053;28;20277;-89
2024/02/26 09:20:46;;;;;;;6.67;3.03;;;4.40;99.90;;;;;;5034112;28;20684;-89
2024/02/26 09:23:12;;;;;;;3.77;2.67;;;4.50;99.90;;;;;;5033888;28;20179;-87
2024/02/26 09:25:38;;;;;;;5.73;2.70;;;4.50;99.90;;;;;;5067406;28;20201;-89
2024/02/26 09:28:04;;;;;;;5.10;3.43;;;4.60;99.90;;;;;;5033739;28;20182;-87
2024/02/26 09:30:29;;;;;;;5.47;2.63;;;4.70;99.90;;;;;;5033899;28;20182;-87
2024/02/26 09:32:55;;;;;;;4.77;2.60;;;4.70;99.90;;;;;;5033300;28;20230;-88
2024/02/26 09:35:21;;;;;;;3.83;2.53;;;4.80;99.90;;;;;;5033714;28;20183;-87
2024/02/26 09:37:48;;;;;;;9.03;2.70;;;4.80;99.90;;;;;;5033509;28;20174;-87
2024/02/26 09:40:14;;;;;;;3.93;2.33;;;4.90;99.90;;;;;;5033611;28;20229;-87
2024/02/26 09:42:45;;;;;;;4.60;2.60;;;5.00;99.90;;;;;;5033559;28;20610;-87
2024/02/26 09:45:22;;;;;;;4.30;2.77;;;5.00;99.90;;;;;;5033665;28;20209;-86
2024/02/26 09:47:51;;;;;;;4.83;2.90;;;5.00;99.90;;;;;;5025301;28;20569;-86
2024/02/26 09:50:18;;;;;;;5.57;3.00;;;5.00;99.90;;;;;;5024378;28;20210;-88
2024/02/26 09:52:44;;;;;;;5.80;2.40;;;5.00;99.90;;;;;;5013787;28;20191;-88
2024/02/26 09:55:10;;;;;;;4.97;2.67;;;5.10;99.90;;;;;;5030041;28;20182;-88
2024/02/26 09:57:44;;;;;;;3.47;2.40;;;5.10;99.90;;;;;;5032953;28;20178;-86
2024/02/26 10:00:18;;;;;;;4.50;2.90;;;5.10;99.90;;;;;;5033259;28;20267;-87
2024/02/26 10:02:47;;;;;;;5.40;2.43;;;5.20;99.90;;;;;;5033445;28;20182;-87
2024/02/26 10:05:17;;;;;;;3.40;2.23;;;5.20;99.90;;;;;;5033124;28;20183;-88
2024/02/26 10:07:45;;;;;;;4.17;2.60;;;5.20;99.90;;;;;;5032505;28;20269;-86
2024/02/26 10:10:10;;;;;;;3.57;2.20;;;5.30;99.90;;;;;;5033086;28;20241;-86
2024/02/26 10:12:36;;;;;;;3.97;2.40;;;5.40;99.90;;;;;;5033109;28;20178;-86
2024/02/26 10:15:02;;;;;;;4.67;3.00;;;5.40;99.90;;;;;;5033193;28;20189;-86
2024/02/26 10:17:28;;;;;;;2.47;2.27;;;5.40;99.90;;;;;;5028017;28;20179;-86
2024/02/26 10:19:56;;;;;;;3.20;2.40;;;5.50;99.90;;;;;;5033271;28;20203;-85
2024/02/26 10:22:22;;;;;;;3.60;2.50;;;5.60;99.90;;;;;;5031089;28;20538;-87
2024/02/26 10:24:48;;;;;;;3.80;2.70;;;5.70;99.90;;;;;;5018675;28;20218;-86
2024/02/26 10:27:15;;;;;;;3.43;2.47;;;5.80;99.90;;;;;;5032901;28;20260;-86
2024/02/26 10:29:42;;;;;;;3.00;2.30;;;5.70;99.90;;;;;;5024756;28;20337;-86
2024/02/26 10:32:09;;;;;;;3.20;2.53;;;5.80;99.90;;;;;;5032539;28;20249;-86
2024/02/26 10:34:37;;;;;;;5.70;2.97;;;5.80;99.90;;;;;;5024357;28;20671;-86
2024/02/26 10:37:04;;;;;;;7.07;2.70;;;5.90;99.90;;;;;;5032570;28;20201;-87
2024/02/26 10:39:30;;;;;;;4.27;3.00;;;5.90;99.90;;;;;;5032452;28;20783;-85
2024/02/26 10:41:56;;;;;;;4.17;3.00;;;5.80;99.90;;;;;;5032965;28;20286;-86
2024/02/26 10:44:21;;;;;;;3.53;2.73;;;5.90;99.90;;;;;;5032693;28;20179;-86
2024/02/26 10:46:51;;;;;;;3.80;2.70;;;5.90;99.90;;;;;;5030707;28;20217;-86
2024/02/26 10:49:19;;;;;;;4.60;2.43;;;5.90;99.90;;;;;;5030115;28;20178;-85
2024/02/26 10:51:58;;;;;;;2.90;2.40;;;6.00;99.90;;;;;;5032334;28;20183;-86
2024/02/26 10:54:29;;;;;;;4.73;3.10;;;6.00;99.90;;;;;;5032646;28;20182;-86
2024/02/26 10:57:00;;;;;;;6.73;2.87;;;6.00;99.90;;;;;;5032671;28;20232;-86
2024/02/26 10:59:26;;;;;;;5.77;3.13;;;6.00;99.90;;;;;;5032641;28;20281;-86
2024/02/26 11:01:52;;;;;;;33.00;16.00;;;6.10;99.90;;;;;;5032747;28;20277;-86
2024/02/26 11:04:18;;;;;;;20.27;10.27;;;6.10;99.90;;;;;;5032571;28;20200;-86
2024/02/26 11:06:49;;;;;;;6.33;4.10;;;6.00;99.90;;;;;;5024063;28;20209;-87
2024/02/26 11:09:16;;;;;;;4.50;3.13;;;6.10;99.90;;;;;;5032251;28;20205;-85
2024/02/26 11:11:42;;;;;;;4.70;3.27;;;6.10;99.90;;;;;;5032404;28;20183;-87
2024/02/26 11:14:09;;;;;;;5.00;3.50;;;6.10;99.90;;;;;;5032350;28;20233;-86
2024/02/26 11:16:37;;;;;;;5.80;3.67;;;6.20;99.90;;;;;;5031904;28;20190;-86
2024/02/26 11:19:08;;;;;;;7.20;4.00;;;6.20;99.90;;;;;;5012572;28;20233;-86
2024/02/26 11:21:42;;;;;;;7.43;4.27;;;6.20;99.90;;;;;;5024181;28;20210;-88
2024/02/26 11:24:15;;;;;;;6.20;3.83;;;6.20;99.90;;;;;;5032703;28;20178;-86
2024/02/26 11:27:01;;;;;;;5.80;3.80;;;6.20;99.90;;;;;;5032201;28;20281;-88
2024/02/26 11:29:32;;;;;;;5.03;3.37;;;6.20;99.90;;;;;;5031782;28;20186;-85
2024/02/26 11:32:00;;;;;;;6.70;3.90;;;6.30;99.90;;;;;;5030553;28;20237;-86
2024/02/26 11:34:26;;;;;;;4.90;3.87;;;6.30;99.90;;;;;;5024093;28;20179;-86
2024/02/26 11:36:53;;;;;;;4.73;3.37;;;6.40;99.90;;;;;;5031953;28;20193;-85
2024/02/26 11:39:20;;;;;;;4.50;3.53;;;6.40;99.90;;;;;;5031777;28;20213;-86
2024/02/26 11:41:46;;;;;;;6.67;3.60;;;6.40;99.90;;;;;;5031883;28;20186;-84
2024/02/26 11:44:12;;;;;;;5.80;3.50;;;6.40;99.90;;;;;;5032247;28;20273;-86
2024/02/26 11:46:42;;;;;;;5.10;3.47;;;6.50;99.90;;;;;;5034483;28;20213;-87
2024/02/26 11:49:27;;;;;;;5.23;3.40;;;6.50;99.90;;;;;;5032345;28;20182;-86
2024/02/26 11:51:59;;;;;;;5.37;3.40;;;6.50;99.90;;;;;;5068761;28;20269;-85
2024/02/26 11:54:48;;;;;;;4.17;3.17;;;6.60;99.90;;;;;;5035540;28;20625;-86
2024/02/26 11:57:32;;;;;;;5.30;3.70;;;6.60;99.90;;;;;;5035783;28;20179;-85
2024/02/26 12:00:07;;;;;;;5.03;3.97;;;6.60;99.90;;;;;;5022261;28;20210;-85
2024/02/26 12:02:46;;;;;;;7.07;3.60;;;6.60;99.90;;;;;;5026949;28;20662;-89
2024/02/26 12:05:17;;;;;;;5.93;4.57;;;6.60;99.90;;;;;;5035399;28;20281;-85
2024/02/26 12:07:49;;;;;;;5.90;4.13;;;6.60;99.90;;;;;;5026548;28;20220;-87
2024/02/26 12:10:28;;;;;;;5.83;4.10;;;6.70;99.90;;;;;;5035255;28;20179;-86
2024/02/26 12:13:07;;;;;;;5.00;4.03;;;6.70;99.90;;;;;;5020981;28;20572;-85
2024/02/26 12:15:53;;;;;;;4.87;3.70;;;6.80;99.90;;;;;;5034983;28;20523;-88
2024/02/26 12:18:20;;;;;;;5.77;4.27;;;6.80;99.90;;;;;;5047958;28;20246;-91
2024/02/26 12:20:47;;;;;;;6.07;3.80;;;6.80;99.90;;;;;;5034866;28;20716;-86
2024/02/26 12:23:19;;;;;;;6.37;3.80;;;6.90;99.90;;;;;;5034365;28;20244;-86
2024/02/26 12:25:47;;;;;;;5.83;4.17;;;7.00;99.90;;;;;;5035049;28;20197;-86
2024/02/26 12:28:14;;;;;;;5.33;4.03;;;7.00;99.90;;;;;;5034936;28;20178;-92
2024/02/26 12:30:40;;;;;;;5.63;4.30;;;7.00;99.90;;;;;;5034914;28;20641;-86
2024/02/26 12:33:08;;;;;;;7.60;4.47;;;7.00;99.90;;;;;;5034858;28;20230;-87
2024/02/26 12:35:35;;;;;;;6.60;4.80;;;7.00;99.90;;;;;;5034305;28;20648;-89
2024/02/26 12:38:03;;;;;;;8.40;5.73;;;7.00;99.90;;;;;;5034253;28;20213;-87
2024/02/26 12:40:30;;;;;;;7.10;4.43;;;7.10;99.90;;;;;;5034344;28;20218;-86
2024/02/26 12:42:55;;;;;;;7.07;4.43;;;7.10;99.90;;;;;;5034986;28;20292;-87
2024/02/26 12:45:21;;;;;;;10.90;5.10;;;7.20;99.90;;;;;;5034938;28;20618;-87
2024/02/26 12:47:49;;;;;;;15.73;8.07;;;7.20;99.90;;;;;;5029745;28;20224;-84
2024/02/26 12:50:15;;;;;;;14.30;9.13;;;7.20;99.90;;;;;;5035535;28;20188;-88
2024/02/26 12:52:46;;;;;;;10.07;5.93;;;7.20;99.90;;;;;;5026111;28;20635;-87
2024/02/26 12:55:17;;;;;;;8.60;6.00;;;7.20;99.90;;;;;;5035750;28;20167;-87
2024/02/26 12:57:44;;;;;;;6.43;4.33;;;7.20;99.90;;;;;;5033992;28;20182;-85